sensor_id;sensor_type;location;lat;lon;timestamp;pressure;altitude;pressure_sealevel;temperature;humidity
85113;BME280;75461;51.556;9.946;2024-03-22T00:00:00;100359.75;;;6.60;94.50
85113;BME280;75461;51.556;9.946;2024-03-22T00:02:26;100369.25;;;6.61;94.88
85113;BME280;75461;51.556;9.946;2024-03-22T00:04:51;100359.06;;;6.57;93.79
85113;BME280;75461;51.556;9.946;2024-03-22T00:07:18;100360.75;;;6.58;93.21
85113;BME280;75461;51.556;9.946;2024-03-22T00:09:43;100354.06;;;6.52;93.58
85113;BME280;75461;51.556;9.946;2024-03-22T00:12:08;100348.00;;;6.51;93.24
85113;BME280;75461;51.556;9.946;2024-03-22T00:14:34;100347.94;;;6.53;93.78
85113;BME280;75461;51.556;9.946;2024-03-22T00:16:59;100348.63;;;6.57;94.29
85113;BME280;75461;51.556;9.946;2024-03-22T00:19:25;100356.09;;;6.64;93.96
85113;BME280;75461;51.556;9.946;2024-03-22T00:21:50;100350.88;;;6.64;93.50
85113;BME280;75461;51.556;9.946;2024-03-22T00:24:16;100350.03;;;6.64;94.43
85113;BME280;75461;51.556;9.946;2024-03-22T00:26:41;100343.69;;;6.69;94.24
85113;BME280;75461;51.556;9.946;2024-03-22T00:29:07;100344.44;;;6.71;93.31
85113;BME280;75461;51.556;9.946;2024-03-22T00:31:32;100340.94;;;6.72;94.86
85113;BME280;75461;51.556;9.946;2024-03-22T00:33:58;100332.44;;;6.69;94.24
85113;BME280;75461;51.556;9.946;2024-03-22T00:36:23;100337.00;;;6.64;95.09
85113;BME280;75461;51.556;9.946;2024-03-22T00:38:49;100326.84;;;6.58;93.90
85113;BME280;75461;51.556;9.946;2024-03-22T00:41:14;100319.75;;;6.61;95.29
85113;BME280;75461;51.556;9.946;2024-03-22T00:43:39;100322.00;;;6.69;95.01
85113;BME280;75461;51.556;9.946;2024-03-22T00:46:05;100319.38;;;6.69;93.38
85113;BME280;75461;51.556;9.946;2024-03-22T00:48:30;100308.97;;;6.69;94.86
85113;BME280;75461;51.556;9.946;2024-03-22T00:50:56;100308.63;;;6.75;92.96
85113;BME280;75461;51.556;9.946;2024-03-22T00:53:21;100298.38;;;6.72;94.22
85113;BME280;75461;51.556;9.946;2024-03-22T00:55:46;100297.22;;;6.77;93.20
85113;BME280;75461;51.556;9.946;2024-03-22T00:58:19;100297.91;;;6.81;93.96
85113;BME280;75461;51.556;9.946;2024-03-22T01:00:45;100298.69;;;6.83;93.28
85113;BME280;75461;51.556;9.946;2024-03-22T01:03:10;100298.59;;;6.85;92.45
85113;BME280;75461;51.556;9.946;2024-03-22T01:05:36;100302.22;;;6.82;93.20
85113;BME280;75461;51.556;9.946;2024-03-22T01:08:01;100300.13;;;6.71;93.54
85113;BME280;75461;51.556;9.946;2024-03-22T01:10:26;100302.41;;;6.60;93.45
85113;BME280;75461;51.556;9.946;2024-03-22T01:12:52;100288.41;;;6.63;94.18
85113;BME280;75461;51.556;9.946;2024-03-22T01:15:18;100289.94;;;6.67;93.78
85113;BME280;75461;51.556;9.946;2024-03-22T01:17:43;100291.56;;;6.69;92.87
85113;BME280;75461;51.556;9.946;2024-03-22T01:20:09;100288.72;;;6.74;92.24
85113;BME280;75461;51.556;9.946;2024-03-22T01:22:35;100295.69;;;6.73;92.21
85113;BME280;75461;51.556;9.946;2024-03-22T01:25:00;100294.00;;;6.72;92.01
85113;BME280;75461;51.556;9.946;2024-03-22T01:27:26;100292.31;;;6.71;93.77
85113;BME280;75461;51.556;9.946;2024-03-22T01:29:51;100293.53;;;6.64;94.42
85113;BME280;75461;51.556;9.946;2024-03-22T01:32:16;100288.28;;;6.47;94.91
85113;BME280;75461;51.556;9.946;2024-03-22T01:34:42;100293.97;;;6.55;95.78
85113;BME280;75461;51.556;9.946;2024-03-22T01:37:07;100291.22;;;6.58;95.02
85113;BME280;75461;51.556;9.946;2024-03-22T01:39:33;100290.84;;;6.66;95.20
85113;BME280;75461;51.556;9.946;2024-03-22T01:41:58;100283.59;;;6.72;93.89
85113;BME280;75461;51.556;9.946;2024-03-22T01:44:31;100282.28;;;6.81;94.93
85113;BME280;75461;51.556;9.946;2024-03-22T01:46:57;100289.78;;;6.87;94.30
85113;BME280;75461;51.556;9.946;2024-03-22T01:49:24;100283.34;;;6.94;94.18
85113;BME280;75461;51.556;9.946;2024-03-22T01:51:50;100288.50;;;6.96;94.46
85113;BME280;75461;51.556;9.946;2024-03-22T01:54:17;100285.59;;;7.02;93.96
85113;BME280;75461;51.556;9.946;2024-03-22T01:56:42;100288.91;;;7.06;94.03
85113;BME280;75461;51.556;9.946;2024-03-22T01:59:08;100278.31;;;7.09;94.41
85113;BME280;75461;51.556;9.946;2024-03-22T02:01:34;100279.16;;;7.09;93.78
85113;BME280;75461;51.556;9.946;2024-03-22T02:04:00;100269.56;;;7.10;94.41
85113;BME280;75461;51.556;9.946;2024-03-22T02:06:25;100264.56;;;7.05;93.25
85113;BME280;75461;51.556;9.946;2024-03-22T02:08:51;100253.06;;;7.09;94.02
85113;BME280;75461;51.556;9.946;2024-03-22T02:11:16;100249.47;;;7.12;93.36
85113;BME280;75461;51.556;9.946;2024-03-22T02:13:42;100238.09;;;7.13;94.10
85113;BME280;75461;51.556;9.946;2024-03-22T02:16:10;100243.47;;;7.10;93.68
85113;BME280;75461;51.556;9.946;2024-03-22T02:18:36;100219.56;;;7.01;94.52
85113;BME280;75461;51.556;9.946;2024-03-22T02:21:02;100219.97;;;7.10;94.58
85113;BME280;75461;51.556;9.946;2024-03-22T02:23:34;100218.75;;;7.17;94.54
85113;BME280;75461;51.556;9.946;2024-03-22T02:26:01;100212.63;;;7.18;92.89
85113;BME280;75461;51.556;9.946;2024-03-22T02:28:26;100210.69;;;7.21;94.31
85113;BME280;75461;51.556;9.946;2024-03-22T02:30:52;100218.38;;;7.24;92.27
85113;BME280;75461;51.556;9.946;2024-03-22T02:33:17;100218.75;;;7.17;94.10
85113;BME280;75461;51.556;9.946;2024-03-22T02:35:43;100216.13;;;7.17;94.19
85113;BME280;75461;51.556;9.946;2024-03-22T02:38:08;100209.03;;;7.20;94.41
85113;BME280;75461;51.556;9.946;2024-03-22T02:40:34;100212.63;;;7.18;93.41
85113;BME280;75461;51.556;9.946;2024-03-22T02:42:59;100209.09;;;7.19;94.10
85113;BME280;75461;51.556;9.946;2024-03-22T02:45:25;100209.03;;;7.20;94.60
85113;BME280;75461;51.556;9.946;2024-03-22T02:47:50;100205.31;;;7.24;93.69
85113;BME280;75461;51.556;9.946;2024-03-22T02:50:16;100202.41;;;7.31;93.71
85113;BME280;75461;51.556;9.946;2024-03-22T02:52:41;100197.00;;;7.34;94.26
85113;BME280;75461;51.556;9.946;2024-03-22T02:55:07;100198.78;;;7.33;94.67
85113;BME280;75461;51.556;9.946;2024-03-22T02:57:33;100205.44;;;7.39;94.85
85113;BME280;75461;51.556;9.946;2024-03-22T03:00:00;100199.53;;;7.35;94.55
85113;BME280;75461;51.556;9.946;2024-03-22T03:02:25;100200.56;;;7.15;95.37
85113;BME280;75461;51.556;9.946;2024-03-22T03:04:50;100191.69;;;7.02;97.78
85113;BME280;75461;51.556;9.946;2024-03-22T03:07:16;100186.00;;;7.11;95.79
85113;BME280;75461;51.556;9.946;2024-03-22T03:09:41;100180.13;;;7.08;95.65
85113;BME280;75461;51.556;9.946;2024-03-22T03:12:07;100164.03;;;7.15;96.63
85113;BME280;75461;51.556;9.946;2024-03-22T03:14:32;100168.09;;;7.21;94.87
85113;BME280;75461;51.556;9.946;2024-03-22T03:16:57;100154.81;;;7.25;95.81
85113;BME280;75461;51.556;9.946;2024-03-22T03:19:23;100148.50;;;7.30;95.89
85113;BME280;75461;51.556;9.946;2024-03-22T03:21:48;100148.09;;;7.37;94.23
85113;BME280;75461;51.556;9.946;2024-03-22T03:24:14;100149.56;;;7.43;94.57
85113;BME280;75461;51.556;9.946;2024-03-22T03:26:39;100148.53;;;7.45;93.11
85113;BME280;75461;51.556;9.946;2024-03-22T03:29:04;100140.53;;;7.48;94.20
85113;BME280;75461;51.556;9.946;2024-03-22T03:31:30;100142.13;;;7.51;93.69
85113;BME280;75461;51.556;9.946;2024-03-22T03:33:55;100143.06;;;7.50;93.06
85113;BME280;75461;51.556;9.946;2024-03-22T03:36:21;100140.13;;;7.40;94.46
85113;BME280;75461;51.556;9.946;2024-03-22T03:38:46;100131.69;;;7.51;94.49
85113;BME280;75461;51.556;9.946;2024-03-22T03:41:12;100125.38;;;7.55;94.11
85113;BME280;75461;51.556;9.946;2024-03-22T03:43:37;100126.81;;;7.61;94.37
85113;BME280;75461;51.556;9.946;2024-03-22T03:46:02;100131.59;;;7.68;92.97
85113;BME280;75461;51.556;9.946;2024-03-22T03:48:28;100122.94;;;7.68;92.32
85113;BME280;75461;51.556;9.946;2024-03-22T03:50:54;100122.44;;;7.77;93.75
85113;BME280;75461;51.556;9.946;2024-03-22T03:53:21;100110.47;;;7.73;93.47
85113;BME280;75461;51.556;9.946;2024-03-22T03:55:46;100107.53;;;7.79;93.65
85113;BME280;75461;51.556;9.946;2024-03-22T03:58:12;100108.19;;;7.83;92.53
85113;BME280;75461;51.556;9.946;2024-03-22T04:00:37;100107.03;;;7.88;93.07
85113;BME280;75461;51.556;9.946;2024-03-22T04:03:03;100100.19;;;7.86;93.66
85113;BME280;75461;51.556;9.946;2024-03-22T04:05:28;100103.03;;;7.97;93.35
85113;BME280;75461;51.556;9.946;2024-03-22T04:07:53;100103.13;;;7.95;93.88
85113;BME280;75461;51.556;9.946;2024-03-22T04:10:19;100108.25;;;7.97;92.62
85113;BME280;75461;51.556;9.946;2024-03-22T04:12:45;100104.56;;;8.01;93.76
85113;BME280;75461;51.556;9.946;2024-03-22T04:15:10;100099.22;;;8.03;93.18
85113;BME280;75461;51.556;9.946;2024-03-22T04:17:35;100090.94;;;8.10;96.09
85113;BME280;75461;51.556;9.946;2024-03-22T04:20:02;100103.59;;;8.18;95.50
85113;BME280;75461;51.556;9.946;2024-03-22T04:22:29;100104.69;;;8.14;97.69
85113;BME280;75461;51.556;9.946;2024-03-22T04:24:54;100095.81;;;8.16;98.85
85113;BME280;75461;51.556;9.946;2024-03-22T04:27:19;100089.75;;;8.16;99.51
85113;BME280;75461;51.556;9.946;2024-03-22T04:29:47;100094.03;;;8.17;98.51
85113;BME280;75461;51.556;9.946;2024-03-22T04:32:12;100080.25;;;8.15;98.78
85113;BME280;75461;51.556;9.946;2024-03-22T04:34:42;100079.31;;;8.16;100.00
85113;BME280;75461;51.556;9.946;2024-03-22T04:37:08;100075.13;;;7.98;100.00
85113;BME280;75461;51.556;9.946;2024-03-22T04:39:35;100071.03;;;7.78;100.00
85113;BME280;75461;51.556;9.946;2024-03-22T04:42:00;100076.03;;;7.82;100.00
85113;BME280;75461;51.556;9.946;2024-03-22T04:44:25;100068.25;;;7.81;100.00
85113;BME280;75461;51.556;9.946;2024-03-22T04:46:51;100066.59;;;7.80;100.00
85113;BME280;75461;51.556;9.946;2024-03-22T04:49:16;100065.91;;;7.76;100.00
85113;BME280;75461;51.556;9.946;2024-03-22T04:51:42;100064.81;;;7.80;100.00
85113;BME280;75461;51.556;9.946;2024-03-22T04:54:07;100066.16;;;7.71;100.00
85113;BME280;75461;51.556;9.946;2024-03-22T04:56:32;100055.03;;;7.68;100.00
85113;BME280;75461;51.556;9.946;2024-03-22T04:58:58;100058.00;;;7.62;100.00
85113;BME280;75461;51.556;9.946;2024-03-22T05:01:23;100059.38;;;7.53;100.00
85113;BME280;75461;51.556;9.946;2024-03-22T05:03:49;100054.72;;;7.58;100.00
85113;BME280;75461;51.556;9.946;2024-03-22T05:06:15;100049.81;;;7.68;100.00
85113;BME280;75461;51.556;9.946;2024-03-22T05:08:40;100047.72;;;7.75;100.00
85113;BME280;75461;51.556;9.946;2024-03-22T05:11:07;100049.09;;;7.66;100.00
85113;BME280;75461;51.556;9.946;2024-03-22T05:13:33;100038.31;;;7.56;100.00
85113;BME280;75461;51.556;9.946;2024-03-22T05:15:58;100031.16;;;7.60;100.00
85113;BME280;75461;51.556;9.946;2024-03-22T05:18:23;100031.16;;;7.60;100.00
85113;BME280;75461;51.556;9.946;2024-03-22T05:20:49;100046.38;;;7.67;100.00
85113;BME280;75461;51.556;9.946;2024-03-22T05:23:14;100038.31;;;7.72;100.00
85113;BME280;75461;51.556;9.946;2024-03-22T05:25:42;100049.25;;;7.79;100.00
85113;BME280;75461;51.556;9.946;2024-03-22T05:28:07;100030.63;;;7.85;100.00
85113;BME280;75461;51.556;9.946;2024-03-22T05:30:33;100021.91;;;7.84;100.00
85113;BME280;75461;51.556;9.946;2024-03-22T05:32:58;100013.47;;;7.95;100.00
85113;BME280;75461;51.556;9.946;2024-03-22T05:35:24;100017.34;;;7.88;100.00
85113;BME280;75461;51.556;9.946;2024-03-22T05:37:50;100009.47;;;8.04;100.00
85113;BME280;75461;51.556;9.946;2024-03-22T05:40:16;100010.72;;;8.12;100.00
85113;BME280;75461;51.556;9.946;2024-03-22T05:42:42;100009.88;;;8.12;100.00
85113;BME280;75461;51.556;9.946;2024-03-22T05:45:07;99997.47;;;8.15;100.00
85113;BME280;75461;51.556;9.946;2024-03-22T05:47:34;99997.00;;;8.23;99.91
85113;BME280;75461;51.556;9.946;2024-03-22T05:50:00;99994.22;;;8.26;100.00
85113;BME280;75461;51.556;9.946;2024-03-22T05:52:25;99999.19;;;8.31;100.00
85113;BME280;75461;51.556;9.946;2024-03-22T05:54:50;99993.84;;;8.32;99.88
85113;BME280;75461;51.556;9.946;2024-03-22T05:57:16;99988.28;;;8.38;98.96
85113;BME280;75461;51.556;9.946;2024-03-22T05:59:42;99990.91;;;8.38;98.66
85113;BME280;75461;51.556;9.946;2024-03-22T06:02:07;99999.03;;;8.48;98.87
85113;BME280;75461;51.556;9.946;2024-03-22T06:04:32;99996.81;;;8.56;98.67
85113;BME280;75461;51.556;9.946;2024-03-22T06:06:58;99996.03;;;8.54;98.83
85113;BME280;75461;51.556;9.946;2024-03-22T06:09:27;99992.66;;;8.52;99.75
85113;BME280;75461;51.556;9.946;2024-03-22T06:12:17;99990.06;;;8.67;97.33
85113;BME280;75461;51.556;9.946;2024-03-22T06:14:43;99971.97;;;8.63;97.44
85113;BME280;75461;51.556;9.946;2024-03-22T06:17:08;99980.75;;;8.62;98.43
85113;BME280;75461;51.556;9.946;2024-03-22T06:19:35;99975.97;;;8.69;97.92
85113;BME280;75461;51.556;9.946;2024-03-22T06:22:01;99970.56;;;8.72;96.78
85113;BME280;75461;51.556;9.946;2024-03-22T06:24:27;99965.97;;;8.76;96.18
85113;BME280;75461;51.556;9.946;2024-03-22T06:26:52;99966.53;;;8.67;98.59
85113;BME280;75461;51.556;9.946;2024-03-22T06:29:17;99972.31;;;8.72;96.92
85113;BME280;75461;51.556;9.946;2024-03-22T06:31:43;99971.75;;;8.81;96.35
85113;BME280;75461;51.556;9.946;2024-03-22T06:34:08;99974.28;;;8.82;97.28
85113;BME280;75461;51.556;9.946;2024-03-22T06:36:34;99977.72;;;8.83;96.66
85113;BME280;75461;51.556;9.946;2024-03-22T06:38:59;99973.34;;;8.83;95.79
85113;BME280;75461;51.556;9.946;2024-03-22T06:41:25;99974.63;;;8.91;97.10
85113;BME280;75461;51.556;9.946;2024-03-22T06:43:51;99967.22;;;8.97;96.77
85113;BME280;75461;51.556;9.946;2024-03-22T06:46:17;99963.88;;;8.95;95.85
85113;BME280;75461;51.556;9.946;2024-03-22T06:48:43;99965.06;;;9.04;95.14
85113;BME280;75461;51.556;9.946;2024-03-22T06:51:08;99963.56;;;9.14;95.91
85113;BME280;75461;51.556;9.946;2024-03-22T06:53:33;99969.34;;;9.19;95.38
85113;BME280;75461;51.556;9.946;2024-03-22T06:55:59;99965.31;;;9.14;94.50
85113;BME280;75461;51.556;9.946;2024-03-22T06:58:24;99968.50;;;9.19;95.15
85113;BME280;75461;51.556;9.946;2024-03-22T07:00:50;99963.50;;;9.28;94.27
85113;BME280;75461;51.556;9.946;2024-03-22T07:03:16;99958.66;;;9.22;93.30
85113;BME280;75461;51.556;9.946;2024-03-22T07:05:42;99951.00;;;9.19;94.59
85113;BME280;75461;51.556;9.946;2024-03-22T07:08:08;99949.66;;;9.26;97.56
85113;BME280;75461;51.556;9.946;2024-03-22T07:10:33;99947.88;;;9.27;93.85
85113;BME280;75461;51.556;9.946;2024-03-22T07:12:59;99943.13;;;9.33;94.57
85113;BME280;75461;51.556;9.946;2024-03-22T07:15:24;99944.47;;;9.39;94.84
85113;BME280;75461;51.556;9.946;2024-03-22T07:17:50;99946.31;;;9.51;91.82
85113;BME280;75461;51.556;9.946;2024-03-22T07:20:16;99950.13;;;9.60;91.10
85113;BME280;75461;51.556;9.946;2024-03-22T07:22:42;99946.03;;;9.69;94.82
85113;BME280;75461;51.556;9.946;2024-03-22T07:25:07;99952.66;;;9.74;91.68
85113;BME280;75461;51.556;9.946;2024-03-22T07:27:35;99942.19;;;9.87;92.56
85113;BME280;75461;51.556;9.946;2024-03-22T07:30:01;99934.34;;;10.00;91.32
85113;BME280;75461;51.556;9.946;2024-03-22T07:32:26;99932.69;;;10.12;89.20
85113;BME280;75461;51.556;9.946;2024-03-22T07:34:52;99935.00;;;10.29;88.67
85113;BME280;75461;51.556;9.946;2024-03-22T07:37:17;99935.63;;;10.45;88.57
85113;BME280;75461;51.556;9.946;2024-03-22T07:39:42;99937.59;;;10.55;89.32
85113;BME280;75461;51.556;9.946;2024-03-22T07:42:08;99931.78;;;10.75;89.68
85113;BME280;75461;51.556;9.946;2024-03-22T07:44:33;99935.78;;;10.81;84.65
85113;BME280;75461;51.556;9.946;2024-03-22T07:46:59;99936.47;;;10.95;85.16
85113;BME280;75461;51.556;9.946;2024-03-22T07:49:24;99938.38;;;10.93;82.41
85113;BME280;75461;51.556;9.946;2024-03-22T07:51:50;99929.00;;;11.02;83.90
85113;BME280;75461;51.556;9.946;2024-03-22T07:54:16;99933.41;;;11.02;83.71
85113;BME280;75461;51.556;9.946;2024-03-22T07:56:41;99932.34;;;11.04;82.80
85113;BME280;75461;51.556;9.946;2024-03-22T07:59:06;99932.91;;;10.96;83.71
85113;BME280;75461;51.556;9.946;2024-03-22T08:01:32;99918.53;;;10.89;85.84
85113;BME280;75461;51.556;9.946;2024-03-22T08:03:57;99924.06;;;10.97;85.45
85113;BME280;75461;51.556;9.946;2024-03-22T08:06:22;99919.81;;;11.08;83.71
85113;BME280;75461;51.556;9.946;2024-03-22T08:08:48;99920.28;;;11.02;90.07
85113;BME280;75461;51.556;9.946;2024-03-22T08:11:13;99923.75;;;11.02;83.90
85113;BME280;75461;51.556;9.946;2024-03-22T08:13:39;99904.50;;;11.14;83.48
85113;BME280;75461;51.556;9.946;2024-03-22T08:16:04;99900.34;;;11.23;83.50
85113;BME280;75461;51.556;9.946;2024-03-22T08:18:31;99912.91;;;11.31;82.35
85113;BME280;75461;51.556;9.946;2024-03-22T08:20:58;99906.88;;;11.41;81.68
85113;BME280;75461;51.556;9.946;2024-03-22T08:23:24;99902.97;;;11.47;80.32
85113;BME280;75461;51.556;9.946;2024-03-22T08:25:49;99905.00;;;11.55;82.29
85113;BME280;75461;51.556;9.946;2024-03-22T08:28:15;99889.38;;;11.53;82.27
85113;BME280;75461;51.556;9.946;2024-03-22T08:30:41;99893.00;;;11.39;81.80
85113;BME280;75461;51.556;9.946;2024-03-22T08:33:07;99880.84;;;11.38;81.97
85113;BME280;75461;51.556;9.946;2024-03-22T08:35:32;99896.81;;;11.35;81.69
85113;BME280;75461;51.556;9.946;2024-03-22T08:37:58;99894.69;;;11.40;80.58
85113;BME280;75461;51.556;9.946;2024-03-22T08:40:24;99894.31;;;11.34;80.89
85113;BME280;75461;51.556;9.946;2024-03-22T08:42:49;99888.56;;;11.40;79.99
85113;BME280;75461;51.556;9.946;2024-03-22T08:45:15;99881.13;;;11.47;80.72
85113;BME280;75461;51.556;9.946;2024-03-22T08:47:42;99881.34;;;11.55;78.65
85113;BME280;75461;51.556;9.946;2024-03-22T08:50:08;99867.31;;;11.67;78.47
85113;BME280;75461;51.556;9.946;2024-03-22T08:52:33;99863.84;;;11.66;81.49
85113;BME280;75461;51.556;9.946;2024-03-22T08:55:01;99871.50;;;11.70;78.70
85113;BME280;75461;51.556;9.946;2024-03-22T08:57:26;99864.59;;;11.80;81.10
85113;BME280;75461;51.556;9.946;2024-03-22T08:59:51;99861.81;;;11.81;83.69
85113;BME280;75461;51.556;9.946;2024-03-22T09:02:17;99857.19;;;11.85;78.87
85113;BME280;75461;51.556;9.946;2024-03-22T09:04:42;99860.91;;;11.82;79.19
85113;BME280;75461;51.556;9.946;2024-03-22T09:07:07;99861.38;;;11.87;79.83
85113;BME280;75461;51.556;9.946;2024-03-22T09:09:33;99855.06;;;11.90;78.89
85113;BME280;75461;51.556;9.946;2024-03-22T09:11:58;99849.91;;;11.88;79.46
85113;BME280;75461;51.556;9.946;2024-03-22T09:14:24;99844.31;;;11.93;81.15
85113;BME280;75461;51.556;9.946;2024-03-22T09:16:49;99833.44;;;11.98;78.54
85113;BME280;75461;51.556;9.946;2024-03-22T09:19:15;99831.66;;;12.09;79.97
85113;BME280;75461;51.556;9.946;2024-03-22T09:21:40;99835.84;;;12.34;76.87
85113;BME280;75461;51.556;9.946;2024-03-22T09:24:05;99834.75;;;12.26;78.04
85113;BME280;75461;51.556;9.946;2024-03-22T09:26:32;99839.03;;;12.49;77.96
85113;BME280;75461;51.556;9.946;2024-03-22T09:28:58;99839.97;;;12.59;75.15
85113;BME280;75461;51.556;9.946;2024-03-22T09:31:23;99839.56;;;12.75;74.41
85113;BME280;75461;51.556;9.946;2024-03-22T09:33:48;99832.88;;;12.71;73.81
85113;BME280;75461;51.556;9.946;2024-03-22T09:36:14;99832.41;;;12.77;73.16
85113;BME280;75461;51.556;9.946;2024-03-22T09:38:39;99830.34;;;12.81;78.62
85113;BME280;75461;51.556;9.946;2024-03-22T09:41:05;99830.91;;;12.96;75.01
85113;BME280;75461;51.556;9.946;2024-03-22T09:43:31;99828.97;;;12.98;74.90
85113;BME280;75461;51.556;9.946;2024-03-22T09:45:57;99822.63;;;13.00;74.16
85113;BME280;75461;51.556;9.946;2024-03-22T09:48:23;99822.09;;;12.86;73.54
85113;BME280;75461;51.556;9.946;2024-03-22T09:50:49;99811.47;;;13.08;73.36
85113;BME280;75461;51.556;9.946;2024-03-22T09:53:18;99817.75;;;13.17;73.45
85113;BME280;75461;51.556;9.946;2024-03-22T09:55:50;99810.53;;;12.98;74.27
85113;BME280;75461;51.556;9.946;2024-03-22T09:58:17;99810.19;;;13.02;75.07
85113;BME280;75461;51.556;9.946;2024-03-22T10:00:42;99794.75;;;12.98;75.19
85113;BME280;75461;51.556;9.946;2024-03-22T10:03:09;99789.63;;;12.96;73.38
85113;BME280;75461;51.556;9.946;2024-03-22T10:05:35;99797.69;;;13.04;76.88
85113;BME280;75461;51.556;9.946;2024-03-22T10:08:02;99801.88;;;13.07;73.68
85113;BME280;75461;51.556;9.946;2024-03-22T10:10:27;99788.88;;;13.05;72.90
85113;BME280;75461;51.556;9.946;2024-03-22T10:12:53;99801.06;;;13.06;73.25
85113;BME280;75461;51.556;9.946;2024-03-22T10:15:18;99790.75;;;13.15;73.34
85113;BME280;75461;51.556;9.946;2024-03-22T10:17:45;99781.34;;;13.22;73.31
85113;BME280;75461;51.556;9.946;2024-03-22T10:20:13;99787.94;;;13.27;73.58
85113;BME280;75461;51.556;9.946;2024-03-22T10:22:58;99791.53;;;13.26;72.14
85113;BME280;75461;51.556;9.946;2024-03-22T10:25:25;99777.19;;;13.19;72.86
85113;BME280;75461;51.556;9.946;2024-03-22T10:27:50;99777.53;;;13.26;72.52
85113;BME280;75461;51.556;9.946;2024-03-22T10:30:16;99771.16;;;13.49;74.61
85113;BME280;75461;51.556;9.946;2024-03-22T10:32:43;99774.66;;;13.60;74.24
85113;BME280;75461;51.556;9.946;2024-03-22T10:35:12;99761.78;;;13.57;72.05
85113;BME280;75461;51.556;9.946;2024-03-22T10:37:38;99758.44;;;13.54;73.03
85113;BME280;75461;51.556;9.946;2024-03-22T10:40:04;99759.19;;;13.66;72.80
85113;BME280;75461;51.556;9.946;2024-03-22T10:42:37;99762.56;;;13.78;73.46
85113;BME280;75461;51.556;9.946;2024-03-22T10:45:04;99752.19;;;13.56;73.88
85113;BME280;75461;51.556;9.946;2024-03-22T10:47:31;99746.69;;;13.38;72.63
85113;BME280;75461;51.556;9.946;2024-03-22T10:50:05;99741.63;;;13.56;72.93
85113;BME280;75461;51.556;9.946;2024-03-22T10:52:35;99743.38;;;13.66;73.22
85113;BME280;75461;51.556;9.946;2024-03-22T10:55:04;99743.63;;;13.63;74.35
85113;BME280;75461;51.556;9.946;2024-03-22T10:57:32;99730.91;;;13.78;73.68
85113;BME280;75461;51.556;9.946;2024-03-22T10:59:59;99733.41;;;13.70;72.45
85113;BME280;75461;51.556;9.946;2024-03-22T11:02:24;99730.88;;;13.68;71.19
85113;BME280;75461;51.556;9.946;2024-03-22T11:04:56;99732.78;;;13.97;72.15
85113;BME280;75461;51.556;9.946;2024-03-22T11:07:22;99723.72;;;13.80;69.87
85113;BME280;75461;51.556;9.946;2024-03-22T11:09:56;99713.22;;;13.90;71.28
85113;BME280;75461;51.556;9.946;2024-03-22T11:12:27;99706.13;;;13.90;70.66
85113;BME280;75461;51.556;9.946;2024-03-22T11:14:53;99711.25;;;13.92;70.15
85113;BME280;75461;51.556;9.946;2024-03-22T11:17:19;99690.06;;;14.03;69.77
85113;BME280;75461;51.556;9.946;2024-03-22T11:19:46;99689.34;;;14.01;70.23
85113;BME280;75461;51.556;9.946;2024-03-22T11:22:11;99690.50;;;14.08;70.06
85113;BME280;75461;51.556;9.946;2024-03-22T11:24:38;99678.72;;;14.12;69.14
85113;BME280;75461;51.556;9.946;2024-03-22T11:27:03;99679.66;;;14.11;70.07
85113;BME280;75461;51.556;9.946;2024-03-22T11:29:29;99681.34;;;14.12;69.38
85113;BME280;75461;51.556;9.946;2024-03-22T11:31:54;99656.91;;;14.10;72.69
85113;BME280;75461;51.556;9.946;2024-03-22T11:34:20;99666.91;;;14.16;71.68
85113;BME280;75461;51.556;9.946;2024-03-22T11:36:45;99662.19;;;14.20;70.02
85113;BME280;75461;51.556;9.946;2024-03-22T11:39:11;99665.66;;;14.20;70.18
85113;BME280;75461;51.556;9.946;2024-03-22T11:41:36;99658.72;;;14.19;69.32
85113;BME280;75461;51.556;9.946;2024-03-22T11:44:02;99646.78;;;14.06;70.19
85113;BME280;75461;51.556;9.946;2024-03-22T11:46:28;99650.66;;;14.11;70.37
85113;BME280;75461;51.556;9.946;2024-03-22T11:48:53;99645.66;;;14.08;72.06
85113;BME280;75461;51.556;9.946;2024-03-22T11:51:19;99631.63;;;14.17;72.07
85113;BME280;75461;51.556;9.946;2024-03-22T11:53:53;99636.78;;;14.19;71.03
85113;BME280;75461;51.556;9.946;2024-03-22T11:56:21;99630.25;;;14.23;69.71
85113;BME280;75461;51.556;9.946;2024-03-22T11:58:47;99630.53;;;14.39;71.77
85113;BME280;75461;51.556;9.946;2024-03-22T12:01:15;99623.19;;;14.53;70.66
85113;BME280;75461;51.556;9.946;2024-03-22T12:03:43;99634.72;;;14.61;67.27
85113;BME280;75461;51.556;9.946;2024-03-22T12:06:09;99619.16;;;14.68;67.61
85113;BME280;75461;51.556;9.946;2024-03-22T12:08:35;99627.63;;;14.72;66.12
85113;BME280;75461;51.556;9.946;2024-03-22T12:11:03;99619.00;;;14.60;67.06
85113;BME280;75461;51.556;9.946;2024-03-22T12:13:28;99620.38;;;14.83;68.56
85113;BME280;75461;51.556;9.946;2024-03-22T12:15:54;99608.84;;;14.75;66.49
85113;BME280;75461;51.556;9.946;2024-03-22T12:18:19;99602.59;;;14.76;66.70
85113;BME280;75461;51.556;9.946;2024-03-22T12:20:44;99601.19;;;14.81;66.24
85113;BME280;75461;51.556;9.946;2024-03-22T12:23:10;99595.19;;;14.99;66.91
85113;BME280;75461;51.556;9.946;2024-03-22T12:25:35;99599.06;;;14.94;65.87
85113;BME280;75461;51.556;9.946;2024-03-22T12:28:00;99596.47;;;14.85;66.80
85113;BME280;75461;51.556;9.946;2024-03-22T12:30:26;99583.81;;;14.79;65.73
85113;BME280;75461;51.556;9.946;2024-03-22T12:32:51;99582.69;;;14.91;65.56
85113;BME280;75461;51.556;9.946;2024-03-22T12:35:17;99577.00;;;14.96;64.97
85113;BME280;75461;51.556;9.946;2024-03-22T12:37:43;99582.25;;;15.05;64.84
85113;BME280;75461;51.556;9.946;2024-03-22T12:40:08;99568.06;;;15.06;66.60
85113;BME280;75461;51.556;9.946;2024-03-22T12:42:34;99569.31;;;15.02;65.38
85113;BME280;75461;51.556;9.946;2024-03-22T12:45:00;99558.28;;;15.16;64.62
85113;BME280;75461;51.556;9.946;2024-03-22T12:47:25;99563.63;;;15.34;63.70
85113;BME280;75461;51.556;9.946;2024-03-22T12:49:51;99569.16;;;15.59;64.02
85113;BME280;75461;51.556;9.946;2024-03-22T12:52:16;99558.56;;;15.69;62.56